Time;durP1;ratioP1;P1;durP2;ratioP2;P2;SDS_P1;SDS_P2;PMS_P1;PMS_P2;Temp;Humidity;BMP_temperature;BMP_pressure;BME280_temperature;BME280_humidity;BME280_pressure;Samples;Min_cycle;Max_cycle;Signal;HPM_P1;HPM_P2
2022/01/18 00:00:20;;;;;;;26.60;5.25;;;-0.50;99.90;;;;;;2603919;54;20111;31
2022/01/18 00:02:57;;;;;;;23.25;5.28;;;-0.50;99.90;;;;;;2603862;54;20026;31
2022/01/18 00:05:35;;;;;;;21.27;4.78;;;-0.50;99.90;;;;;;2603792;54;20030;31
2022/01/18 00:08:10;;;;;;;12.85;4.40;;;-0.50;99.90;;;;;;2602847;54;20034;31
2022/01/18 00:10:45;;;;;;;16.42;4.20;;;-0.50;99.90;;;;;;2603967;54;20026;31
2022/01/18 00:13:37;;;;;;;14.40;4.23;;;-0.60;99.90;;;;;;2603707;54;20036;31
2022/01/18 00:16:28;;;;;;;18.85;4.80;;;-0.50;99.90;;;;;;2603719;54;21370;31
2022/01/18 00:19:08;;;;;;;17.67;4.40;;;-0.60;99.90;;;;;;2701394;39;20517;31
2022/01/18 00:22:05;;;;;;;15.00;4.20;;;-0.60;99.90;;;;;;2622157;46;20089;31
2022/01/18 00:24:52;;;;;;;;;;;-0.60;99.90;;;;;;2603701;54;20036;31
2022/01/18 00:27:32;;;;;;;17.35;4.28;;;-0.60;99.90;;;;;;2603522;54;19942;31
2022/01/18 00:30:33;;;;;;;12.10;3.73;;;-0.60;99.90;;;;;;2603503;54;20965;31
2022/01/18 00:33:19;;;;;;;15.70;4.13;;;-0.70;99.90;;;;;;2603827;54;20026;31
2022/01/18 00:36:00;;;;;;;26.63;4.72;;;-0.70;99.90;;;;;;2603448;54;20896;31
2022/01/18 00:38:45;;;;;;;19.70;4.20;;;-0.70;99.90;;;;;;2603406;54;20030;31
2022/01/18 00:41:20;;;;;;;15.60;3.75;;;-0.70;99.90;;;;;;2603616;54;20049;31
2022/01/18 00:43:56;;;;;;;16.17;3.38;;;-0.70;99.90;;;;;;2622366;46;20879;31
2022/01/18 00:46:35;;;;;;;16.40;3.90;;;-0.70;99.90;;;;;;2603678;54;20026;31
2022/01/18 00:49:11;;;;;;;16.30;3.47;;;-0.70;99.90;;;;;;2603563;54;20762;31
2022/01/18 00:51:52;;;;;;;15.07;3.58;;;-0.70;99.90;;;;;;2621805;46;20031;31
2022/01/18 00:54:36;;;;;;;15.88;3.83;;;-0.70;99.90;;;;;;2603585;54;20033;31
2022/01/18 00:57:10;;;;;;;28.45;4.63;;;-0.70;99.90;;;;;;2621656;46;20894;31
2022/01/18 00:59:46;;;;;;;16.13;3.40;;;-0.70;99.90;;;;;;2603512;54;20027;31
2022/01/18 01:02:29;;;;;;;17.00;4.40;;;-0.70;99.90;;;;;;2603641;54;20026;31
2022/01/18 01:05:04;;;;;;;16.33;4.38;;;-0.70;99.90;;;;;;2603648;54;20030;31
2022/01/18 01:07:42;;;;;;;15.80;3.40;;;-0.70;99.90;;;;;;2603716;54;20896;31
2022/01/18 01:10:37;;;;;;;15.45;3.30;;;-0.70;99.90;;;;;;2603350;54;20026;31
2022/01/18 01:13:11;;;;;;;17.02;4.15;;;-0.70;99.90;;;;;;2603391;54;20934;31
2022/01/18 01:16:02;;;;;;;19.63;4.18;;;-0.70;99.90;;;;;;2603289;54;19957;31
2022/01/18 01:18:50;;;;;;;31.77;4.88;;;-0.70;99.90;;;;;;2603494;54;20031;31
2022/01/18 01:35:44;;;;;;;19.98;5.05;;;-0.80;99.90;;;;;;2603322;54;20853;31
2022/01/18 01:43:50;;;;;;;16.00;3.83;;;-0.80;99.90;;;;;;2603735;54;20108;31
2022/01/18 01:46:26;;;;;;;15.18;3.13;;;-0.80;99.90;;;;;;2603137;54;20042;31
2022/01/18 01:49:04;;;;;;;14.98;3.75;;;-0.80;99.90;;;;;;2603592;54;20938;31
2022/01/18 01:51:47;;;;;;;12.40;3.00;;;-0.80;99.90;;;;;;2603629;54;20060;31
2022/01/18 01:54:21;;;;;;;17.73;3.25;;;-0.80;99.90;;;;;;2603314;54;20842;31
2022/01/18 01:56:56;;;;;;;17.02;3.90;;;-0.80;99.90;;;;;;2621951;46;20085;31
2022/01/18 01:59:31;;;;;;;15.57;3.67;;;-0.80;99.90;;;;;;2621605;46;20027;31
2022/01/18 02:02:11;;;;;;;17.55;4.32;;;-0.80;99.90;;;;;;2603337;54;20869;31
2022/01/18 02:04:45;;;;;;;16.00;3.30;;;-0.80;99.90;;;;;;2603373;54;20879;31
2022/01/18 02:07:23;;;;;;;12.77;4.17;;;-0.90;99.90;;;;;;2621198;46;20667;31
2022/01/18 02:09:58;;;;;;;19.63;3.72;;;-0.80;99.90;;;;;;2603527;54;21079;31
2022/01/18 02:12:30;;;;;;;15.82;3.08;;;-0.80;99.90;;;;;;2621737;46;20023;31
2022/01/18 02:15:12;;;;;;;12.87;2.80;;;-0.90;99.90;;;;;;2603228;54;20023;31
2022/01/18 02:23:26;;;;;;;14.82;3.67;;;-0.90;99.90;;;;;;2603541;54;20038;31
2022/01/18 02:26:04;;;;;;;12.30;2.95;;;-0.90;99.90;;;;;;2618439;46;20042;31
2022/01/18 02:28:41;;;;;;;15.73;2.83;;;-0.90;99.90;;;;;;2602455;54;20867;31
2022/01/18 02:31:17;;;;;;;19.70;3.15;;;-1.00;99.90;;;;;;2603125;54;19934;31
2022/01/18 02:33:53;;;;;;;23.73;3.40;;;-1.00;99.90;;;;;;2603179;54;20116;31
2022/01/18 02:36:31;;;;;;;15.85;3.53;;;-1.00;99.90;;;;;;2621560;46;20901;31
2022/01/18 02:39:08;;;;;;;14.35;3.33;;;-1.00;99.90;;;;;;2603306;54;20993;31
2022/01/18 02:41:42;;;;;;;13.13;3.50;;;-1.00;99.90;;;;;;2603058;54;20848;31
2022/01/18 02:44:20;;;;;;;19.98;4.18;;;-1.00;99.90;;;;;;2720064;39;20507;31
2022/01/18 02:49:39;;;;;;;19.95;3.35;;;-1.00;99.90;;;;;;2603209;54;20053;31
2022/01/18 02:52:15;;;;;;;17.23;3.08;;;-1.00;99.90;;;;;;2621887;46;20085;31
2022/01/18 02:54:52;;;;;;;15.48;3.10;;;-1.10;99.90;;;;;;2603236;54;20031;31
2022/01/18 02:57:28;;;;;;;15.25;3.35;;;-1.00;99.90;;;;;;2621735;46;20022;31
2022/01/18 03:00:17;;;;;;;15.50;3.47;;;-1.00;99.90;;;;;;2602990;54;20568;31
2022/01/18 03:08:12;;;;;;;19.45;3.85;;;-1.10;99.90;;;;;;2603266;54;20030;31
2022/01/18 03:10:51;;;;;;;15.40;3.92;;;-1.10;99.90;;;;;;2621202;47;20899;31
2022/01/18 03:13:25;;;;;;;20.10;3.85;;;-1.10;99.90;;;;;;2621354;47;20053;31
2022/01/18 03:16:02;;;;;;;18.65;3.22;;;-1.10;99.90;;;;;;2603021;54;20030;31
2022/01/18 03:18:38;;;;;;;17.50;2.85;;;-1.10;99.90;;;;;;2603154;54;20827;31
2022/01/18 03:21:14;;;;;;;20.85;4.75;;;-1.10;99.90;;;;;;2602980;54;20030;31
2022/01/18 03:23:53;;;;;;;22.95;3.85;;;-1.10;99.90;;;;;;2621465;47;20034;31
2022/01/18 03:28:03;;;;;;;18.95;3.50;;;-1.10;99.90;;;;;;2621466;47;20026;31
2022/01/18 03:29:32;;;;;;;17.73;4.40;;;-1.10;99.90;;;;;;2603114;54;20913;31
2022/01/18 03:32:08;;;;;;;21.27;3.20;;;-1.10;99.90;;;;;;2603184;54;20840;31
2022/01/18 03:34:46;;;;;;;14.60;3.10;;;-1.10;99.90;;;;;;2602977;54;20050;31
2022/01/18 03:37:22;;;;;;;19.80;3.35;;;-1.10;99.90;;;;;;2603080;54;20053;31
2022/01/18 03:39:56;;;;;;;18.85;3.05;;;-1.20;99.90;;;;;;2621629;47;20061;31
2022/01/18 03:42:40;;;;;;;13.10;3.20;;;-1.20;99.90;;;;;;2602880;54;20597;31
2022/01/18 03:45:17;;;;;;;15.75;3.20;;;-1.10;99.90;;;;;;2621611;47;20061;31
2022/01/18 03:47:55;;;;;;;19.23;3.40;;;-1.10;99.90;;;;;;2621125;47;20919;31
2022/01/18 03:50:30;;;;;;;27.20;4.20;;;-1.10;99.90;;;;;;2602965;54;20049;31
2022/01/18 03:53:09;;;;;;;18.13;4.88;;;-1.10;99.90;;;;;;2621215;47;20027;31
2022/01/18 03:55:44;;;;;;;23.90;4.47;;;-1.20;99.90;;;;;;2602831;54;20034;31
2022/01/18 03:58:25;;;;;;;19.90;3.60;;;-1.20;99.90;;;;;;2603065;54;20034;31
2022/01/18 04:01:00;;;;;;;22.33;5.27;;;-1.20;99.90;;;;;;2621404;47;20574;31
2022/01/18 04:03:34;;;;;;;20.20;3.50;;;-1.20;99.90;;;;;;2602716;54;20907;31
2022/01/18 04:06:09;;;;;;;21.37;3.93;;;-1.20;99.90;;;;;;2602735;54;20596;31
2022/01/18 04:08:45;;;;;;;27.35;4.03;;;-1.20;99.90;;;;;;2602681;54;20026;31
2022/01/18 04:11:31;;;;;;;19.95;4.97;;;-1.20;99.90;;;;;;2603659;54;20023;31
2022/01/18 04:14:10;;;;;;;17.93;3.90;;;-1.20;99.90;;;;;;2603764;54;20030;31
2022/01/18 04:16:59;;;;;;;18.52;3.90;;;-1.20;99.90;;;;;;2603672;54;20041;31
2022/01/18 04:28:12;;;;;;;20.20;3.80;;;-1.20;99.90;;;;;;2702533;39;21022;31
2022/01/18 04:30:53;;;;;;;17.48;5.13;;;-1.20;99.90;;;;;;2603642;54;20027;31
2022/01/18 04:36:00;;;;;;;18.25;3.75;;;-1.20;99.90;;;;;;2720555;39;22469;31
2022/01/18 04:41:11;;;;;;;15.43;3.60;;;-1.30;99.90;;;;;;2603476;54;20091;31
2022/01/18 04:44:03;;;;;;;22.10;4.20;;;-1.30;99.90;;;;;;2603815;54;20887;31
2022/01/18 04:49:40;;;;;;;23.98;4.57;;;-1.30;99.90;;;;;;2621867;46;20026;31
2022/01/18 04:52:17;;;;;;;17.17;3.67;;;-1.30;99.90;;;;;;2603432;54;20049;31
2022/01/18 05:00:14;;;;;;;16.47;3.93;;;-1.30;99.90;;;;;;2603517;54;20023;31
2022/01/18 05:02:52;;;;;;;22.13;4.80;;;-1.30;99.90;;;;;;2621961;46;20033;31
2022/01/18 05:05:31;;;;;;;18.45;4.38;;;-1.30;99.90;;;;;;2603405;54;20038;31
2022/01/18 05:08:13;;;;;;;22.53;4.50;;;-1.30;99.90;;;;;;2603577;54;20046;31
2022/01/18 05:10:55;;;;;;;22.63;5.15;;;-1.30;99.90;;;;;;2603623;54;20818;31
2022/01/18 05:13:59;;;;;;;23.73;5.30;;;-1.30;99.90;;;;;;2603570;54;20030;31
2022/01/18 05:16:49;;;;;;;19.30;4.70;;;-1.30;99.90;;;;;;2603597;54;20880;31
2022/01/18 05:19:38;;;;;;;28.87;5.00;;;-1.30;99.90;;;;;;2603264;54;20026;31
2022/01/18 05:25:00;;;;;;;;;;;-1.30;99.90;;;;;;2603643;54;20026;31
2022/01/18 05:27:36;;;;;;;32.85;6.03;;;-1.40;99.90;;;;;;2603417;54;20753;31
2022/01/18 05:30:15;;;;;;;40.83;7.30;;;-1.40;99.90;;;;;;2602625;54;20056;31
2022/01/18 05:32:51;;;;;;;25.17;4.35;;;-1.40;99.90;;;;;;2603338;54;20765;31
2022/01/18 05:35:24;;;;;;;27.40;6.07;;;-1.40;99.90;;;;;;2621708;46;20791;31
2022/01/18 05:38:02;;;;;;;24.90;5.10;;;-1.40;99.90;;;;;;2603486;54;20029;31
2022/01/18 05:40:38;;;;;;;31.58;7.57;;;-1.40;99.90;;;;;;2621979;46;20884;31
2022/01/18 05:43:14;;;;;;;29.33;6.53;;;-1.50;99.90;;;;;;2621687;46;20032;31
2022/01/18 05:45:52;;;;;;;22.35;6.60;;;-1.40;99.90;;;;;;2603372;54;20037;31
2022/01/18 05:48:26;;;;;;;30.40;9.17;;;-1.50;99.90;;;;;;2603257;54;20762;31
2022/01/18 05:51:03;;;;;;;31.13;9.73;;;-1.50;99.90;;;;;;2603236;54;21239;31
2022/01/18 05:53:41;;;;;;;30.90;9.05;;;-1.50;99.90;;;;;;2603447;54;20046;31
2022/01/18 05:56:16;;;;;;;26.10;7.95;;;-1.50;99.90;;;;;;2603320;54;20053;31
2022/01/18 05:58:51;;;;;;;21.98;6.43;;;-1.50;99.90;;;;;;2603291;54;20038;31
2022/01/18 06:01:33;;;;;;;25.83;4.80;;;-1.50;99.90;;;;;;2621471;46;20964;31
2022/01/18 06:06:57;;;;;;;18.77;4.25;;;-1.50;99.90;;;;;;2603433;54;20668;31
2022/01/18 06:09:35;;;;;;;24.83;5.97;;;-1.50;99.90;;;;;;2603486;54;20053;31
2022/01/18 06:12:10;;;;;;;26.85;7.72;;;-1.60;99.90;;;;;;2603528;54;20832;31
2022/01/18 06:14:46;;;;;;;27.17;5.90;;;-1.50;99.90;;;;;;2603382;54;20030;31
2022/01/18 06:17:20;;;;;;;26.70;5.05;;;-1.60;99.90;;;;;;2603175;54;20811;31
2022/01/18 06:19:56;;;;;;;22.42;5.22;;;-1.60;99.90;;;;;;2603188;54;20026;31
2022/01/18 06:22:32;;;;;;;30.60;4.27;;;-1.60;99.90;;;;;;2603460;54;20860;31
2022/01/18 06:25:14;;;;;;;27.70;5.20;;;-1.60;99.90;;;;;;2621914;46;20247;31
2022/01/18 06:27:50;;;;;;;31.20;5.15;;;-1.60;99.90;;;;;;2621470;46;20838;31
2022/01/18 06:30:25;;;;;;;22.95;5.20;;;-1.60;99.90;;;;;;2603203;54;20032;31
2022/01/18 06:33:00;;;;;;;27.23;6.00;;;-1.60;99.90;;;;;;2701332;39;20365;31
2022/01/18 06:35:35;;;;;;;32.25;6.15;;;-1.60;99.90;;;;;;2603127;54;20119;31
2022/01/18 06:38:15;;;;;;;32.13;7.95;;;-1.60;99.90;;;;;;2603372;54;20857;31
2022/01/18 06:40:52;;;;;;;38.53;5.80;;;-1.50;99.90;;;;;;2701916;39;20500;31
2022/01/18 06:43:30;;;;;;;33.10;5.65;;;-1.50;99.90;;;;;;2603213;54;20026;31
2022/01/18 06:46:06;;;;;;;25.25;6.40;;;-1.50;99.90;;;;;;2603200;54;20092;31
2022/01/18 06:48:44;;;;;;;31.13;6.47;;;-1.40;99.90;;;;;;2621761;46;20826;31
2022/01/18 06:51:22;;;;;;;28.52;6.55;;;-1.40;99.90;;;;;;2621452;46;20152;31
2022/01/18 06:53:58;;;;;;;32.97;6.28;;;-1.30;99.90;;;;;;2603297;54;20538;31
2022/01/18 06:56:38;;;;;;;35.92;8.13;;;-1.20;99.90;;;;;;2603134;54;20022;31
2022/01/18 06:59:14;;;;;;;25.73;6.65;;;-1.20;99.90;;;;;;2603111;54;20031;31
2022/01/18 07:01:49;;;;;;;32.53;6.80;;;-1.20;99.90;;;;;;2603135;54;20857;31
2022/01/18 07:04:25;;;;;;;37.50;7.38;;;-1.10;99.90;;;;;;2621580;47;20249;31
2022/01/18 07:07:08;;;;;;;33.42;6.90;;;-1.10;99.90;;;;;;2603151;54;20037;31
2022/01/18 07:09:44;;;;;;;35.42;6.88;;;-1.00;99.90;;;;;;2701615;39;20505;31
2022/01/18 07:12:22;;;;;;;31.58;9.70;;;-1.00;99.90;;;;;;2621621;47;21398;31
2022/01/18 07:14:58;;;;;;;36.33;8.52;;;-0.90;99.90;;;;;;2603036;54;20030;31
2022/01/18 07:17:33;;;;;;;30.75;8.25;;;-0.90;99.90;;;;;;2603031;54;20767;31
2022/01/18 07:20:11;;;;;;;29.37;7.40;;;-0.90;99.90;;;;;;2603025;54;20090;31
2022/01/18 07:25:19;;;;;;;22.83;6.93;;;-0.80;99.90;;;;;;2621272;47;20036;31
2022/01/18 07:27:58;;;;;;;33.88;8.15;;;-0.80;99.90;;;;;;2621241;47;20823;31
2022/01/18 07:30:33;;;;;;;30.05;7.70;;;-0.70;99.90;;;;;;2602989;54;20027;31
2022/01/18 07:33:08;;;;;;;38.10;8.35;;;-0.70;99.90;;;;;;2602862;54;20802;31
2022/01/18 07:35:48;;;;;;;34.20;9.23;;;-0.70;99.90;;;;;;2607519;47;20093;31
2022/01/18 07:38:25;;;;;;;40.72;8.40;;;-0.60;99.90;;;;;;2602466;54;20849;31
2022/01/18 07:41:00;;;;;;;30.73;8.65;;;-0.60;99.90;;;;;;2602843;54;20069;31
2022/01/18 07:43:40;;;;;;;35.65;7.30;;;-0.60;99.90;;;;;;2602917;54;20023;31
2022/01/18 07:46:16;;;;;;;29.10;6.90;;;-0.50;99.90;;;;;;2603499;54;20053;31
2022/01/18 07:48:50;;;;;;;;;;;-0.50;99.90;;;;;;2604094;54;20027;31
2022/01/18 07:51:25;;;;;;;31.45;8.95;;;-0.50;99.90;;;;;;2622483;46;19941;31
2022/01/18 07:54:00;;;;;;;37.83;8.48;;;-0.40;99.90;;;;;;2622259;46;20569;31
2022/01/18 07:56:41;;;;;;;35.73;8.63;;;-0.40;99.90;;;;;;2603875;54;20830;31
2022/01/18 07:59:41;;;;;;;38.33;8.93;;;-0.40;99.90;;;;;;2603643;54;20053;31
2022/01/18 08:02:15;;;;;;;24.55;8.00;;;-0.40;99.90;;;;;;2603893;54;20056;31
2022/01/18 08:04:51;;;;;;;35.75;8.50;;;-0.30;99.90;;;;;;2603830;54;20037;31
2022/01/18 08:07:27;;;;;;;29.95;9.70;;;-0.30;99.90;;;;;;2603363;54;20030;31
2022/01/18 08:10:03;;;;;;;32.08;9.07;;;-0.30;99.90;;;;;;2603803;54;20761;31
2022/01/18 08:12:44;;;;;;;30.88;9.57;;;-0.30;99.90;;;;;;2603637;54;19935;31
2022/01/18 08:15:26;;;;;;;34.33;8.90;;;-0.20;99.90;;;;;;2603936;54;20026;31
2022/01/18 08:18:01;;;;;;;28.98;8.57;;;-0.20;99.90;;;;;;2602826;54;20336;31
2022/01/18 08:20:38;;;;;;;35.85;9.85;;;-0.10;99.90;;;;;;2622060;46;20038;31
2022/01/18 08:23:15;;;;;;;27.15;7.28;;;-0.10;99.90;;;;;;2603615;54;20037;31
2022/01/18 08:25:51;;;;;;;34.35;8.95;;;-0.10;99.90;;;;;;2603659;54;20811;31
2022/01/18 08:28:26;;;;;;;41.60;9.93;;;0.00;99.90;;;;;;2603795;54;20027;31
2022/01/18 08:31:05;;;;;;;28.48;7.43;;;0.00;99.90;;;;;;2621992;46;20903;31
2022/01/18 08:33:40;;;;;;;32.85;9.15;;;0.00;99.90;;;;;;2603597;54;20915;31
2022/01/18 08:36:14;;;;;;;27.77;7.32;;;0.00;99.90;;;;;;2603730;54;20828;31
2022/01/18 08:39:01;;;;;;;28.67;8.75;;;0.00;99.90;;;;;;2603803;54;20026;31
2022/01/18 08:41:39;;;;;;;27.10;7.97;;;0.10;99.90;;;;;;2603711;54;20089;31
2022/01/18 08:44:20;;;;;;;35.25;8.52;;;0.10;99.90;;;;;;2603416;54;20804;31
2022/01/18 08:46:57;;;;;;;29.65;7.82;;;0.10;99.90;;;;;;2603515;54;20037;31
2022/01/18 08:49:33;;;;;;;25.02;7.57;;;0.10;99.90;;;;;;2621896;46;20030;31
2022/01/18 08:52:09;;;;;;;23.92;7.72;;;0.10;99.90;;;;;;2603676;54;20038;31
2022/01/18 08:54:52;;;;;;;27.63;7.72;;;0.20;99.90;;;;;;2603760;54;20027;31
2022/01/18 08:57:33;;;;;;;26.92;8.35;;;0.20;99.90;;;;;;2603488;54;20031;31
2022/01/18 09:00:14;;;;;;;30.60;8.93;;;0.20;99.90;;;;;;2602751;54;20030;31
2022/01/18 09:02:53;;;;;;;35.43;8.93;;;0.20;99.90;;;;;;2702307;39;20501;31
2022/01/18 09:05:32;;;;;;;29.13;9.23;;;0.30;99.90;;;;;;2603330;54;19956;31
2022/01/18 09:08:11;;;;;;;29.35;9.52;;;0.30;99.90;;;;;;2611410;46;20887;31
2022/01/18 09:10:49;;;;;;;34.38;10.35;;;0.30;99.90;;;;;;2602550;54;20053;31
2022/01/18 09:13:25;;;;;;;35.00;10.00;;;0.40;99.90;;;;;;2613625;46;20023;31
2022/01/18 09:16:01;;;;;;;35.05;9.18;;;0.40;99.90;;;;;;2603557;54;20810;31
2022/01/18 09:18:40;;;;;;;30.80;8.68;;;0.40;99.90;;;;;;2603749;54;20034;31
2022/01/18 09:21:16;;;;;;;39.80;9.35;;;0.40;99.90;;;;;;2603765;54;20030;31
2022/01/18 09:23:52;;;;;;;24.57;8.17;;;0.50;99.90;;;;;;2603481;54;20027;31
2022/01/18 09:26:29;;;;;;;25.50;8.45;;;0.50;99.90;;;;;;2621638;46;20043;31
2022/01/18 09:29:06;;;;;;;27.45;8.55;;;0.50;99.90;;;;;;2621676;46;20031;31
2022/01/18 09:31:42;;;;;;;26.77;8.43;;;0.50;99.90;;;;;;2602762;54;20978;31
2022/01/18 09:34:27;;;;;;;28.88;9.25;;;0.60;99.90;;;;;;2602908;54;20096;31
2022/01/18 09:37:07;;;;;;;25.70;8.50;;;0.60;99.90;;;;;;2621686;46;20922;31
2022/01/18 09:39:48;;;;;;;31.80;8.55;;;0.60;99.90;;;;;;2621961;46;20052;31
2022/01/18 09:42:31;;;;;;;32.45;8.48;;;0.70;99.90;;;;;;2602784;54;20078;31
2022/01/18 09:45:08;;;;;;;22.70;8.97;;;0.70;99.90;;;;;;2603421;54;20909;31
2022/01/18 09:47:44;;;;;;;30.15;9.73;;;0.90;99.90;;;;;;2603534;54;20033;31
2022/01/18 09:50:27;;;;;;;24.85;9.20;;;0.90;99.90;;;;;;2603579;54;20030;31
2022/01/18 09:53:02;;;;;;;28.65;8.20;;;1.00;99.90;;;;;;2603648;54;20038;31
2022/01/18 09:55:39;;;;;;;30.58;8.98;;;1.00;99.90;;;;;;2603181;54;20957;31
2022/01/18 09:58:17;;;;;;;29.40;9.13;;;1.00;99.90;;;;;;2603000;54;20030;31
2022/01/18 10:00:52;;;;;;;27.33;9.05;;;1.10;99.90;;;;;;2603519;54;20034;31
2022/01/18 10:03:29;;;;;;;25.03;7.80;;;1.10;99.90;;;;;;2603432;54;20038;31
2022/01/18 10:06:09;;;;;;;26.95;7.63;;;1.10;99.90;;;;;;2701938;39;21058;31
2022/01/18 10:08:57;;;;;;;25.73;8.30;;;1.20;99.90;;;;;;2603215;54;20876;31
2022/01/18 10:11:33;;;;;;;21.23;7.90;;;1.20;99.90;;;;;;2603397;54;20030;31
2022/01/18 10:14:09;;;;;;;25.08;8.73;;;1.20;99.90;;;;;;2603506;54;20038;31
2022/01/18 10:16:46;;;;;;;24.73;7.63;;;1.30;99.90;;;;;;2701708;39;20572;31
2022/01/18 10:19:32;;;;;;;26.03;7.70;;;1.30;99.90;;;;;;2607747;46;20767;31
2022/01/18 10:24:41;;;;;;;24.63;8.23;;;1.30;99.90;;;;;;2603313;54;20096;31
2022/01/18 10:27:20;;;;;;;21.38;6.72;;;1.40;99.90;;;;;;2603128;54;20901;31
2022/01/18 10:30:00;;;;;;;22.98;8.07;;;1.50;99.90;;;;;;2603149;54;20903;31
2022/01/18 10:32:39;;;;;;;23.73;7.90;;;1.50;99.90;;;;;;2603242;54;20173;31
2022/01/18 10:35:16;;;;;;;25.15;9.88;;;1.50;99.90;;;;;;2603155;54;20053;31
2022/01/18 10:37:55;;;;;;;30.13;8.10;;;1.50;99.90;;;;;;2621982;46;20027;31
2022/01/18 10:40:33;;;;;;;29.60;9.70;;;1.40;99.90;;;;;;2603076;54;20972;31
2022/01/18 10:43:09;;;;;;;24.10;10.43;;;1.50;99.90;;;;;;2602890;54;20033;31
2022/01/18 10:45:47;;;;;;;31.42;8.68;;;1.50;99.90;;;;;;2621608;46;20037;31
2022/01/18 10:48:23;;;;;;;24.77;8.30;;;1.50;99.90;;;;;;2621629;46;20030;31
2022/01/18 10:51:01;;;;;;;27.67;8.85;;;1.60;99.90;;;;;;2603117;54;20291;31
2022/01/18 10:53:38;;;;;;;27.13;9.20;;;1.60;99.90;;;;;;2621693;46;20030;31
2022/01/18 10:56:25;;;;;;;24.55;9.35;;;1.60;99.90;;;;;;2603004;54;20030;31
2022/01/18 10:59:00;;;;;;;;;;;1.60;99.90;;;;;;2701839;39;22510;31
2022/01/18 11:01:37;;;;;;;26.15;9.35;;;1.60;99.90;;;;;;2603099;54;20776;31
2022/01/18 11:04:14;;;;;;;26.83;7.53;;;1.60;99.90;;;;;;2602981;54;20093;31
2022/01/18 11:06:58;;;;;;;27.75;9.00;;;1.70;99.90;;;;;;2603251;54;20850;31
2022/01/18 11:09:37;;;;;;;35.70;10.05;;;1.70;99.90;;;;;;2602944;54;20980;31
2022/01/18 11:12:19;;;;;;;22.50;7.53;;;1.80;99.90;;;;;;2603182;54;20038;31
2022/01/18 11:15:08;;;;;;;20.20;7.47;;;1.80;99.90;;;;;;2621284;47;20869;31
2022/01/18 11:17:50;;;;;;;25.75;7.70;;;1.80;99.90;;;;;;2602967;54;20034;31
2022/01/18 11:20:27;;;;;;;25.35;8.35;;;1.80;99.90;;;;;;2603466;54;20847;31
2022/01/18 11:23:03;;;;;;;28.13;9.15;;;1.80;99.90;;;;;;2603751;54;20037;31
2022/01/18 11:25:38;;;;;;;22.30;8.40;;;1.80;99.90;;;;;;2603989;54;20117;31
2022/01/18 11:28:17;;;;;;;22.58;8.35;;;1.80;99.90;;;;;;2622466;46;20165;31
2022/01/18 11:30:55;;;;;;;26.90;9.02;;;1.80;99.90;;;;;;2603865;54;20125;31
2022/01/18 11:33:33;;;;;;;26.50;9.00;;;1.80;99.90;;;;;;2603653;54;20030;31
2022/01/18 11:36:13;;;;;;;24.30;8.15;;;1.80;99.90;;;;;;2622133;46;20053;31
2022/01/18 11:39:00;;;;;;;26.15;9.77;;;1.90;99.90;;;;;;2603722;54;20843;31
2022/01/18 11:41:35;;;;;;;24.58;8.32;;;1.80;99.90;;;;;;2603658;54;20050;31
2022/01/18 11:44:27;;;;;;;27.40;9.73;;;1.80;99.90;;;;;;2603982;54;20873;31
2022/01/18 11:47:03;;;;;;;31.47;9.03;;;1.80;99.90;;;;;;2622490;46;21211;31
2022/01/18 11:49:38;;;;;;;26.53;10.00;;;1.80;99.90;;;;;;2603763;54;20368;31
2022/01/18 11:52:31;;;;;;;31.70;9.93;;;1.80;99.90;;;;;;2603821;54;20157;31
2022/01/18 11:55:09;;;;;;;27.73;9.20;;;1.80;99.90;;;;;;2621774;46;20037;31
2022/01/18 11:57:41;;;;;;;21.57;8.10;;;1.90;99.90;;;;;;2622306;46;20033;31
2022/01/18 12:00:27;;;;;;;31.15;9.68;;;1.90;99.90;;;;;;2603798;54;20149;31
2022/01/18 12:03:23;;;;;;;24.00;8.60;;;2.10;99.90;;;;;;2603807;54;20026;31
2022/01/18 12:05:58;;;;;;;32.38;9.90;;;2.10;99.90;;;;;;2603544;54;20877;31
2022/01/18 12:08:43;;;;;;;26.60;8.17;;;2.10;99.90;;;;;;2603447;54;20878;31
2022/01/18 12:11:17;;;;;;;25.83;7.72;;;2.00;99.90;;;;;;2603554;54;20668;31
2022/01/18 12:13:56;;;;;;;26.80;7.70;;;2.00;99.90;;;;;;2603824;54;20026;31
2022/01/18 12:16:34;;;;;;;26.05;8.20;;;2.00;99.90;;;;;;2603659;54;20794;31
2022/01/18 12:19:09;;;;;;;19.45;7.05;;;2.10;99.90;;;;;;2603789;54;20038;31
2022/01/18 12:21:46;;;;;;;27.95;7.95;;;2.00;99.90;;;;;;2603439;54;20988;31
2022/01/18 12:24:23;;;;;;;28.23;9.43;;;2.00;99.90;;;;;;2603683;54;20030;31
2022/01/18 12:27:03;;;;;;;22.07;7.97;;;2.00;99.90;;;;;;2603649;54;20922;31
2022/01/18 12:30:01;;;;;;;23.20;8.05;;;2.10;99.90;;;;;;2621818;46;20335;31
2022/01/18 12:32:56;;;;;;;;;;;2.10;99.90;;;;;;2622528;46;20030;31
2022/01/18 12:35:31;;;;;;;22.40;6.85;;;2.10;99.90;;;;;;2603561;54;19962;31
2022/01/18 12:38:10;;;;;;;21.58;7.25;;;2.20;99.90;;;;;;2603575;54;20176;31
2022/01/18 12:40:47;;;;;;;28.48;6.80;;;2.20;99.90;;;;;;2603600;54;20759;31
2022/01/18 12:46:17;;;;;;;20.25;6.00;;;2.20;99.90;;;;;;2603697;54;20030;31
2022/01/18 12:48:55;;;;;;;19.75;6.20;;;2.00;99.90;;;;;;2603735;54;20234;31
2022/01/18 12:51:34;;;;;;;22.23;6.05;;;2.00;99.90;;;;;;2603621;54;20030;31
2022/01/18 12:54:10;;;;;;;19.38;6.70;;;2.00;99.90;;;;;;2621782;46;20903;31
2022/01/18 12:56:48;;;;;;;29.87;6.07;;;2.00;99.90;;;;;;2621644;46;20873;31
2022/01/18 12:59:28;;;;;;;18.47;5.23;;;2.10;99.90;;;;;;2603843;54;21174;31
2022/01/18 13:02:06;;;;;;;24.40;5.90;;;2.10;99.90;;;;;;2603477;54;20254;31
2022/01/18 13:04:41;;;;;;;18.58;6.13;;;2.10;99.90;;;;;;2603471;54;20839;31
2022/01/18 13:07:19;;;;;;;23.60;5.88;;;2.20;99.90;;;;;;2603438;54;20026;31
2022/01/18 13:09:57;;;;;;;18.20;5.68;;;2.20;99.90;;;;;;2603029;54;20111;31
2022/01/18 13:12:37;;;;;;;18.10;4.85;;;2.20;99.90;;;;;;2621915;46;20027;31
2022/01/18 13:15:21;;;;;;;23.48;5.65;;;2.20;99.90;;;;;;2621695;46;20030;31
2022/01/18 13:24:11;;;;;;;30.08;6.68;;;2.10;99.90;;;;;;2603598;54;20057;31
2022/01/18 13:26:53;;;;;;;17.00;6.37;;;2.00;99.90;;;;;;2621899;46;20027;31
2022/01/18 13:29:33;;;;;;;19.67;5.67;;;2.00;99.90;;;;;;2603361;54;20061;31
2022/01/18 13:32:12;;;;;;;21.52;6.40;;;2.00;99.90;;;;;;2603686;54;20866;31
2022/01/18 13:34:54;;;;;;;26.20;5.47;;;1.90;99.90;;;;;;2603506;54;20936;31
2022/01/18 13:37:31;;;;;;;23.55;5.50;;;1.90;99.90;;;;;;2603521;54;20246;31
2022/01/18 13:40:12;;;;;;;22.15;6.57;;;1.90;99.90;;;;;;2603436;54;20026;31
2022/01/18 13:42:49;;;;;;;25.65;6.60;;;1.90;99.90;;;;;;2603386;54;20072;31
2022/01/18 13:45:26;;;;;;;24.40;6.50;;;1.80;99.90;;;;;;2621368;46;20030;31
2022/01/18 13:48:06;;;;;;;25.30;6.80;;;1.80;99.90;;;;;;2603515;54;20748;31
2022/01/18 13:50:51;;;;;;;22.30;5.45;;;1.80;99.90;;;;;;2603493;54;20022;31
2022/01/18 13:53:28;;;;;;;20.08;6.30;;;1.70;99.90;;;;;;2603508;54;20804;31
2022/01/18 13:56:11;;;;;;;21.33;6.57;;;1.70;99.90;;;;;;2621707;46;20038;31
2022/01/18 13:58:50;;;;;;;25.35;5.95;;;1.70;99.90;;;;;;2603456;54;20033;31
2022/01/18 14:01:26;;;;;;;16.85;5.65;;;1.70;99.90;;;;;;2603297;54;20030;31
2022/01/18 14:04:04;;;;;;;26.33;6.85;;;1.70;99.90;;;;;;2603120;54;20026;31
2022/01/18 14:06:40;;;;;;;26.90;6.35;;;1.70;99.90;;;;;;2621643;46;20030;31
2022/01/18 14:09:16;;;;;;;25.77;7.28;;;1.70;99.90;;;;;;2603441;54;20057;31
2022/01/18 14:11:57;;;;;;;27.98;8.02;;;1.60;99.90;;;;;;2621777;46;20033;31
2022/01/18 14:14:38;;;;;;;25.83;8.90;;;1.70;99.90;;;;;;2603449;54;20828;31
2022/01/18 14:17:17;;;;;;;28.02;8.48;;;1.60;99.90;;;;;;2603672;54;20081;31
2022/01/18 14:19:52;;;;;;;29.27;6.85;;;1.60;99.90;;;;;;2603243;54;20089;31
2022/01/18 14:22:29;;;;;;;31.55;8.02;;;1.60;99.90;;;;;;2603441;54;20056;31
2022/01/18 14:25:07;;;;;;;26.00;7.35;;;1.50;99.90;;;;;;2603197;54;20030;31
2022/01/18 14:27:45;;;;;;;27.67;8.27;;;1.50;99.90;;;;;;2603387;54;20040;31
2022/01/18 14:30:24;;;;;;;22.30;8.00;;;1.50;99.90;;;;;;2603318;54;20044;31
2022/01/18 14:32:59;;;;;;;27.63;8.33;;;1.40;99.90;;;;;;2603194;54;20043;31
2022/01/18 14:35:33;;;;;;;17.85;7.15;;;1.40;99.90;;;;;;2603504;54;20038;31
2022/01/18 14:38:11;;;;;;;25.00;7.97;;;1.40;99.90;;;;;;2620688;46;20964;31
2022/01/18 14:40:48;;;;;;;29.45;8.52;;;1.40;99.90;;;;;;2622078;46;20049;31
2022/01/18 14:43:32;;;;;;;21.45;8.13;;;1.40;99.90;;;;;;2603097;54;20030;31
2022/01/18 14:46:21;;;;;;;31.40;8.25;;;1.40;99.90;;;;;;2603043;54;20842;31
2022/01/18 14:48:59;;;;;;;30.50;7.95;;;1.30;99.90;;;;;;2603057;54;20027;31
2022/01/18 14:51:36;;;;;;;29.25;8.73;;;1.30;99.90;;;;;;2603093;54;20038;31
2022/01/18 14:54:13;;;;;;;32.35;9.25;;;1.40;99.90;;;;;;2602820;54;20038;31
2022/01/18 14:57:00;;;;;;;23.80;11.63;;;1.30;99.90;;;;;;2603220;54;20038;31
2022/01/18 14:59:41;;;;;;;;;;;1.40;99.90;;;;;;2621503;46;20934;31
2022/01/18 15:02:19;;;;;;;34.93;11.23;;;1.30;99.90;;;;;;2603344;54;20763;31
2022/01/18 15:04:55;;;;;;;31.77;13.53;;;1.30;99.90;;;;;;2603012;54;20030;31
2022/01/18 15:07:32;;;;;;;31.20;12.50;;;1.30;99.90;;;;;;2602534;54;20066;31